Time;durP1;ratioP1;P1;durP2;ratioP2;P2;SDS_P1;SDS_P2;PMS_P1;PMS_P2;Temp;Humidity;BMP_temperature;BMP_pressure;BME280_temperature;BME280_humidity;BME280_pressure;Samples;Min_cycle;Max_cycle;Signal;HPM_P1;HPM_P2
2023/01/24 00:01:29;;;;;;;13.80;8.70;;;;;;;-2.49;84.45;98562.17;110040;1243;58953;-70
2023/01/24 00:03:58;;;;;;;14.00;9.50;;;;;;;-2.46;84.87;98560.46;110097;1243;58891;-70
2023/01/24 00:06:27;;;;;;;11.90;7.90;;;;;;;-2.46;84.98;98567.46;110139;1242;69849;-70
2023/01/24 00:08:56;;;;;;;11.40;8.80;;;;;;;-2.47;87.11;98571.22;110175;1243;69092;-71
2023/01/24 00:11:25;;;;;;;15.50;9.20;;;;;;;-2.48;91.16;98576.35;110098;1244;69304;-70
2023/01/24 00:13:54;;;;;;;14.80;8.70;;;;;;;-2.52;93.60;98575.16;110107;1244;58893;-71
2023/01/24 00:16:23;;;;;;;13.10;8.60;;;;;;;-2.57;92.75;98573.64;110150;1251;58879;-71
2023/01/24 00:18:52;;;;;;;10.90;7.50;;;;;;;-2.61;91.66;98575.69;110298;1241;70008;-70
2023/01/24 00:21:24;;;;;;;10.10;8.20;;;;;;;-2.66;90.87;98570.05;110169;1245;69143;-71
2023/01/24 00:23:54;;;;;;;11.50;8.00;;;;;;;-2.72;89.12;98575.36;110116;1243;69258;-71
2023/01/24 00:26:24;;;;;;;11.70;7.60;;;;;;;-2.76;88.12;98575.71;110147;1244;58871;-70
2023/01/24 00:28:53;;;;;;;10.80;7.40;;;;;;;-2.80;87.84;98578.27;110140;1243;59312;-70
2023/01/24 00:31:24;;;;;;;9.40;6.20;;;;;;;-2.83;88.07;98578.61;110080;1244;69841;-71
2023/01/24 00:33:55;;;;;;;9.60;6.20;;;;;;;-2.86;87.97;98575.37;110141;1244;69746;-70
2023/01/24 00:36:24;;;;;;;9.70;6.80;;;;;;;-2.89;87.76;98572.14;110146;1244;69859;-70
2023/01/24 00:38:54;;;;;;;8.00;5.50;;;;;;;-2.93;88.01;98572.31;110004;1245;58930;-70
2023/01/24 00:41:26;;;;;;;8.60;5.60;;;;;;;-2.96;87.97;98577.77;110022;1246;58876;-70
2023/01/24 00:43:55;;;;;;;10.80;7.50;;;;;;;-2.98;87.73;98577.27;109907;1243;70486;-70
2023/01/24 00:46:25;;;;;;;10.20;6.40;;;;;;;-2.97;91.71;98577.08;110146;1244;69511;-70
2023/01/24 00:48:54;;;;;;;9.20;6.20;;;;;;;-2.98;92.20;98576.40;110131;1244;69959;-70
2023/01/24 00:51:24;;;;;;;9.30;6.50;;;;;;;-2.99;92.15;98575.39;109942;1243;58978;-70
2023/01/24 00:53:54;;;;;;;10.60;8.60;;;;;;;-3.02;88.90;98577.77;110133;1243;58945;-69
2023/01/24 00:56:23;;;;;;;11.10;8.00;;;;;;;-3.03;85.12;98579.48;110100;1242;70681;-71
2023/01/24 00:58:53;;;;;;;9.60;7.00;;;;;;;-3.04;85.43;98579.48;110228;1243;68505;-69
2023/01/24 01:01:22;;;;;;;9.30;7.70;;;;;;;-3.06;87.08;98581.02;110005;1242;69092;-69
2023/01/24 01:03:55;;;;;;;11.50;8.10;;;;;;;-3.07;91.86;98581.86;110141;1242;58927;-69
2023/01/24 01:06:25;;;;;;;9.90;7.00;;;;;;;-3.10;93.95;98585.11;109957;1241;58973;-69
2023/01/24 01:08:55;;;;;;;10.10;7.40;;;;;;;-3.14;91.74;98585.27;109621;1243;622781;-69
2023/01/24 01:11:24;;;;;;;10.90;7.50;;;;;;;-3.16;88.13;98585.09;110166;1242;69215;-69
2023/01/24 01:13:56;;;;;;;10.60;7.50;;;;;;;-3.15;88.39;98582.54;109857;1245;69360;-69
2023/01/24 01:16:26;;;;;;;10.30;6.50;;;;;;;-3.13;89.88;98586.64;110131;1244;58889;-69
2023/01/24 01:18:55;;;;;;;9.20;7.10;;;;;;;-3.16;88.49;98586.30;110151;1243;58913;-69
2023/01/24 01:21:25;;;;;;;10.20;7.00;;;;;;;-3.14;86.15;98587.48;109861;1243;70001;-69
2023/01/24 01:23:56;;;;;;;9.90;7.00;;;;;;;-3.10;86.61;98588.35;110174;1242;67383;-70
2023/01/24 01:26:25;;;;;;;9.50;6.30;;;;;;;-3.06;86.20;98589.71;109907;1244;69217;-69
2023/01/24 01:28:55;;;;;;;9.70;7.00;;;;;;;-3.03;87.21;98589.37;110148;1244;58887;-70
2023/01/24 01:31:25;;;;;;;8.40;6.50;;;;;;;-3.01;87.56;98589.88;109994;1244;58846;-70
2023/01/24 01:33:55;;;;;;;;;;;;;;;-3.01;88.13;98584.42;109982;1244;69646;-69
2023/01/24 01:36:25;;;;;;;13.00;7.70;;;;;;;-3.03;89.32;98583.75;110100;1244;68559;-69
2023/01/24 01:38:55;;;;;;;;;;;;;;;-3.07;91.74;98585.61;110001;1243;68540;-69
2023/01/24 01:41:25;;;;;;;9.30;6.80;;;;;;;-3.11;93.25;98585.28;109876;1244;58953;-70
2023/01/24 01:46:50;;;;;;;9.10;6.40;;;;;;;-3.17;95.33;98586.98;109985;1244;69715;-70
2023/01/24 01:49:27;;;;;;;9.90;6.30;;;;;;;-3.20;96.13;98585.62;109981;1244;69221;-70
2023/01/24 01:52:03;;;;;;;11.20;6.30;;;;;;;-3.23;96.46;98584.09;110035;1244;69298;-70
2023/01/24 01:54:41;;;;;;;8.90;6.40;;;;;;;-3.23;97.60;98581.02;109942;1244;58948;-71
2023/01/24 01:57:34;;;;;;;10.30;6.60;;;;;;;-3.24;98.01;98577.42;109745;1242;58942;-71
2023/01/24 02:00:12;;;;;;;7.70;6.40;;;;;;;-3.25;98.74;98576.73;109813;1243;69814;-71
2023/01/24 02:02:50;;;;;;;7.70;4.90;;;;;;;-3.26;98.17;98577.24;109792;1243;68503;-71
2023/01/24 02:05:24;;;;;;;8.50;5.40;;;;;;;-3.30;96.91;98575.88;109788;1244;69150;-69
2023/01/24 02:08:11;;;;;;;8.10;5.20;;;;;;;-3.32;95.87;98578.09;109846;1244;58900;-69
2023/01/24 02:13:35;;;;;;;6.30;4.80;;;;;;;-3.35;95.57;98572.64;109963;1242;69636;-69
2023/01/24 02:16:06;;;;;;;6.80;4.30;;;;;;;-3.35;95.43;98567.52;110096;1244;69318;-69
2023/01/24 02:18:40;;;;;;;6.30;4.40;;;;;;;-3.36;94.75;98568.55;110102;1244;69248;-70
2023/01/24 02:21:16;;;;;;;9.00;5.90;;;;;;;-3.38;94.04;98568.36;110231;1244;58879;-69
2023/01/24 02:24:22;;;;;;;11.10;6.00;;;;;;;-3.38;95.73;98570.07;110115;1244;58827;-69
2023/01/24 02:26:51;;;;;;;6.90;5.20;;;;;;;-3.42;93.79;98569.91;110025;1246;69677;-69
2023/01/24 02:29:22;;;;;;;8.00;5.60;;;;;;;-3.45;93.39;98570.58;109933;1246;69317;-69
2023/01/24 02:32:00;;;;;;;6.40;4.60;;;;;;;-3.49;93.01;98570.23;109997;1246;69259;-70
2023/01/24 02:34:30;;;;;;;10.40;5.80;;;;;;;-3.53;93.87;98574.48;109983;1246;58945;-69
2023/01/24 02:37:02;;;;;;;;;;;;;;;-3.56;95.82;98573.96;110083;1244;58833;-69
2023/01/24 02:39:56;;;;;;;9.00;5.10;;;;;;;-3.60;95.22;98573.45;109883;1244;70492;-70
2023/01/24 02:42:33;;;;;;;9.40;6.10;;;;;;;-3.62;93.91;98573.44;110231;1242;68498;-69
2023/01/24 02:45:25;;;;;;;8.30;5.10;;;;;;;-3.62;90.26;98572.24;110093;1243;69388;-71
2023/01/24 02:47:56;;;;;;;6.80;5.10;;;;;;;-3.54;90.26;98575.16;110155;1243;58926;-72
2023/01/24 02:53:28;;;;;;;9.60;5.60;;;;;;;-3.44;94.66;98578.08;109931;1243;58944;-71
2023/01/24 02:53:30;;;;;;;7.40;4.60;;;;;;;-3.43;95.00;98574.85;109964;1247;70988;-71
2023/01/24 02:58:53;;;;;;;7.40;5.40;;;;;;;-3.41;90.58;98575.88;110136;1243;69124;-70
2023/01/24 03:01:24;;;;;;;9.00;5.50;;;;;;;-3.42;90.94;98576.38;109984;1246;58986;-70
2023/01/24 03:03:57;;;;;;;15.30;8.20;;;;;;;-3.43;92.16;98577.40;109979;1246;59270;-71
2023/01/24 03:06:27;;;;;;;10.00;6.50;;;;;;;-3.44;93.41;98579.96;109986;1244;69961;-71
2023/01/24 03:08:57;;;;;;;;;;;;;;;-3.47;96.85;98578.92;109820;1243;69180;-70
2023/01/24 03:11:33;;;;;;;10.60;7.40;;;;;;;-3.49;97.87;98576.54;110013;1244;68542;-71
2023/01/24 03:36:31;;;;;;;6.40;4.90;;;;;;;-3.75;94.94;98581.08;110099;1241;68543;-70
2023/01/24 03:41:51;;;;;;;6.10;4.60;;;;;;;-3.77;94.91;98573.06;110103;1241;58867;-71
2023/01/24 03:44:20;;;;;;;7.50;4.40;;;;;;;-3.76;94.75;98570.52;109847;1246;58883;-70
2023/01/24 03:46:50;;;;;;;4.50;3.80;;;;;;;-3.75;93.82;98574.43;109700;1243;69841;-71
2023/01/24 03:52:28;;;;;;;5.30;4.00;;;;;;;-3.73;91.67;98575.13;110037;1244;69360;-71
2023/01/24 03:55:04;;;;;;;6.60;4.30;;;;;;;-3.73;89.80;98577.00;109855;1243;58927;-70
2023/01/24 03:57:34;;;;;;;;;;;;;;;-3.75;89.22;98577.85;109719;1247;58936;-70
2023/01/24 04:00:09;;;;;;;7.90;6.00;;;;;;;-3.77;90.48;98581.42;109804;1244;70076;-70
2023/01/24 04:02:45;;;;;;;8.20;4.90;;;;;;;-3.80;93.80;98582.26;109794;1242;69588;-70
2023/01/24 04:05:17;;;;;;;6.40;4.80;;;;;;;-3.84;92.95;98583.95;109831;1250;69106;-71
2023/01/24 04:07:48;;;;;;;7.90;5.30;;;;;;;-3.87;93.95;98579.52;110073;1244;59028;-70
2023/01/24 04:10:17;;;;;;;6.60;5.20;;;;;;;-3.90;94.35;98582.23;109735;1246;58806;-71
2023/01/24 04:12:49;;;;;;;5.10;4.20;;;;;;;-3.94;95.56;98576.59;109804;1245;70037;-70
2023/01/24 04:15:24;;;;;;;5.50;4.40;;;;;;;-3.97;94.94;98576.75;110114;1244;67588;-70
2023/01/24 04:18:07;;;;;;;5.20;3.60;;;;;;;-4.01;92.84;98575.22;109847;1245;70212;-70
2023/01/24 04:20:37;;;;;;;4.70;4.20;;;;;;;-4.01;91.08;98578.95;109719;1242;58953;-70
2023/01/24 04:23:07;;;;;;;;;;;;;;;-3.99;94.21;98581.85;109775;1245;59344;-70
2023/01/24 04:25:39;;;;;;;10.30;6.50;;;;;;;-4.01;94.44;98582.70;110029;1247;70482;-70
2023/01/24 04:28:09;;;;;;;6.70;5.20;;;;;;;-4.04;93.21;98583.54;109761;1247;69096;-70
2023/01/24 04:30:40;;;;;;;6.00;4.30;;;;;;;-4.07;93.89;98584.20;109803;1243;69160;-70
2023/01/24 04:33:18;;;;;;;6.50;4.80;;;;;;;-4.11;94.56;98585.73;110047;1244;58961;-70
2023/01/24 04:35:47;;;;;;;5.50;4.10;;;;;;;-4.14;93.97;98583.33;110159;1244;58857;-70
2023/01/24 04:38:17;;;;;;;5.90;5.00;;;;;;;-4.16;94.30;98585.52;109891;1247;70816;-70
2023/01/24 04:41:13;;;;;;;5.30;4.20;;;;;;;-4.19;94.67;98591.65;109902;1242;68822;-70
2023/01/24 04:43:44;;;;;;;6.10;4.20;;;;;;;-4.23;94.48;98593.84;109792;1244;69275;-70
2023/01/24 04:46:14;;;;;;;5.90;4.00;;;;;;;-4.23;96.94;98591.45;109804;1244;58926;-70
2023/01/24 04:48:55;;;;;;;6.40;5.30;;;;;;;-4.24;96.57;98591.44;109803;1244;58864;-70
2023/01/24 04:51:34;;;;;;;4.90;3.80;;;;;;;-4.28;95.68;98592.45;109832;1244;69637;-70
2023/01/24 04:54:06;;;;;;;5.50;3.50;;;;;;;-4.31;94.96;98593.96;109678;1247;69810;-70
2023/01/24 04:56:36;;;;;;;5.00;3.70;;;;;;;-4.32;93.98;98594.13;109798;1244;69911;-70
2023/01/24 04:59:05;;;;;;;5.10;4.30;;;;;;;-4.31;91.68;98597.03;109880;1243;58891;-70
2023/01/24 05:01:36;;;;;;;6.70;4.20;;;;;;;-4.29;90.83;98601.14;109811;1243;58942;-70
2023/01/24 05:04:12;;;;;;;6.80;4.50;;;;;;;-4.26;90.54;98602.33;109975;1244;69963;-70
2023/01/24 05:06:41;;;;;;;7.90;4.40;;;;;;;-4.25;92.63;98602.17;109767;1243;68278;-70
2023/01/24 05:09:10;;;;;;;10.20;6.90;;;;;;;-4.26;92.39;98606.24;109800;1246;69513;-70
2023/01/24 05:11:49;;;;;;;8.50;5.80;;;;;;;-4.27;92.67;98612.70;110087;1241;58881;-70
2023/01/24 05:14:18;;;;;;;9.60;6.60;;;;;;;-4.28;94.73;98615.95;109771;1248;58892;-70
2023/01/24 05:16:48;;;;;;;8.90;6.40;;;;;;;-4.29;93.25;98616.29;110072;1241;70596;-70
2023/01/24 05:19:18;;;;;;;;;;;;;;;-4.29;93.11;98616.63;110006;1245;69345;-70
2023/01/24 05:21:48;;;;;;;8.10;4.40;;;;;;;-4.30;94.50;98617.27;109694;1247;69141;-70
2023/01/24 05:24:18;;;;;;;9.40;5.20;;;;;;;-4.30;92.63;98618.83;109710;1243;58888;-70
2023/01/24 05:26:47;;;;;;;8.40;5.70;;;;;;;-4.26;92.32;98620.20;109720;1245;58913;-70
2023/01/24 05:29:20;;;;;;;7.00;5.30;;;;;;;-4.21;97.17;98623.98;109761;1247;71187;-70
2023/01/24 05:31:51;;;;;;;7.00;5.20;;;;;;;-4.20;96.53;98625.19;109773;1246;69858;-70
2023/01/24 05:34:21;;;;;;;6.30;4.60;;;;;;;-4.21;96.57;98626.02;110046;1243;69273;-70
2023/01/24 05:36:51;;;;;;;6.60;4.10;;;;;;;-4.23;95.66;98624.48;109794;1245;58936;-70
2023/01/24 05:39:20;;;;;;;7.50;3.90;;;;;;;-4.24;94.73;98632.48;109801;1246;58901;-70
2023/01/24 05:41:49;;;;;;;6.90;5.20;;;;;;;-4.24;91.87;98635.38;110191;1241;70631;-70
2023/01/24 05:44:19;;;;;;;;;;;;;;;-4.24;91.99;98643.20;110206;1244;68495;-72
2023/01/24 05:46:49;;;;;;;6.50;4.90;;;;;;;-4.27;92.02;98641.48;110257;1242;68542;-71
2023/01/24 05:49:26;;;;;;;7.60;6.00;;;;;;;-4.33;91.76;98650.14;109969;1247;58990;-70
2023/01/24 05:51:57;;;;;;;8.00;6.00;;;;;;;-4.38;92.39;98650.60;110198;1244;58878;-71
2023/01/24 05:54:41;;;;;;;9.30;6.00;;;;;;;-4.41;94.81;98652.80;110130;1242;70968;-69
2023/01/24 05:57:24;;;;;;;9.10;6.20;;;;;;;-4.44;95.11;98655.83;110144;1244;69282;-70
2023/01/24 06:00:29;;;;;;;7.50;5.50;;;;;;;-4.43;98.18;98661.98;109480;1250;69374;-70
2023/01/24 06:03:17;;;;;;;8.70;6.60;;;;;;;-4.44;97.39;98666.05;110063;1245;58977;-69
2023/01/24 06:05:48;;;;;;;10.70;7.10;;;;;;;-4.43;95.07;98672.19;109724;1248;59023;-70
2023/01/24 06:08:19;;;;;;;9.90;6.90;;;;;;;-4.40;96.29;98669.81;109680;1245;68902;-69
2023/01/24 06:10:48;;;;;;;8.70;6.30;;;;;;;-4.38;97.30;98675.12;109821;1247;69267;-69
2023/01/24 06:13:18;;;;;;;9.50;6.60;;;;;;;-4.37;96.94;98676.99;109752;1247;69263;-69
2023/01/24 06:15:47;;;;;;;11.40;6.00;;;;;;;-4.34;96.08;98673.61;109773;1247;58868;-69
2023/01/24 06:18:18;;;;;;;6.40;4.80;;;;;;;-4.31;95.40;98677.03;109715;1247;58887;-70
2023/01/24 06:20:50;;;;;;;6.80;5.20;;;;;;;-4.28;93.87;98682.84;109809;1243;70331;-70
2023/01/24 06:23:27;;;;;;;7.20;4.90;;;;;;;-4.22;91.98;98681.34;109989;1247;70070;-71
2023/01/24 06:26:00;;;;;;;7.50;4.50;;;;;;;-4.15;93.37;98682.75;109768;1243;68736;-71
2023/01/24 06:28:30;;;;;;;8.00;5.70;;;;;;;-4.10;92.57;98684.48;109942;1247;58951;-69
2023/01/24 06:31:28;;;;;;;10.20;6.20;;;;;;;-4.02;90.87;98685.38;109765;1247;58926;-70
2023/01/24 06:34:30;;;;;;;11.50;6.40;;;;;;;-3.91;90.32;98689.70;109880;1247;69862;-70
2023/01/24 06:37:26;;;;;;;10.40;6.70;;;;;;;-3.80;89.97;98693.33;109905;1245;69123;-70
2023/01/24 06:39:56;;;;;;;9.40;5.20;;;;;;;-3.69;90.05;98693.72;109856;1245;69754;-69
2023/01/24 06:42:25;;;;;;;9.10;6.20;;;;;;;-3.62;89.99;98692.23;109751;1247;58939;-69
2023/01/24 06:44:54;;;;;;;11.40;6.80;;;;;;;-3.55;89.82;98690.88;109922;1243;58939;-70
2023/01/24 06:47:26;;;;;;;11.50;7.10;;;;;;;-3.47;91.74;98694.49;109836;1246;71122;-70
2023/01/24 06:49:55;;;;;;;11.00;6.80;;;;;;;-3.38;92.04;98698.27;109718;1247;68561;-70
2023/01/24 06:52:24;;;;;;;8.50;5.90;;;;;;;-3.29;91.83;98698.81;109861;1249;69310;-70
2023/01/24 06:54:53;;;;;;;18.30;10.60;;;;;;;-3.16;94.05;98704.30;109912;1245;58960;-70
2023/01/24 06:57:22;;;;;;;11.80;9.50;;;;;;;-3.06;92.67;98703.48;109850;1253;58913;-71
2023/01/24 06:59:51;;;;;;;19.90;12.20;;;;;;;-2.97;90.53;98702.80;109722;1247;70601;-71
2023/01/24 07:02:19;;;;;;;20.50;12.10;;;;;;;-2.87;90.14;98709.30;109785;1246;68500;-70
2023/01/24 07:04:48;;;;;;;16.70;11.90;;;;;;;-2.75;89.98;98713.41;110048;1244;69975;-70
2023/01/24 07:07:17;;;;;;;12.30;9.20;;;;;;;-2.60;90.04;98712.91;110171;1244;60038;-71
2023/01/24 07:09:46;;;;;;;16.20;9.90;;;;;;;-2.26;90.90;98712.73;110192;1245;58827;-70
2023/01/24 07:12:15;;;;;;;15.30;10.60;;;;;;;-1.68;91.86;98712.45;110025;1244;69678;-71
2023/01/24 07:14:44;;;;;;;17.60;12.50;;;;;;;-0.96;91.55;98715.36;110052;1244;69228;-71
2023/01/24 07:17:13;;;;;;;15.40;10.00;;;;;;;-0.17;87.74;98714.08;109866;1244;69220;-71
2023/01/24 07:19:42;;;;;;;14.10;9.70;;;;;;;0.59;86.72;98714.14;109929;1245;58935;-71
2023/01/24 07:22:12;;;;;;;19.10;13.40;;;;;;;1.42;80.14;98712.14;109870;1244;58944;-71
2023/01/24 07:24:42;;;;;;;46.80;32.40;;;;;;;2.15;76.95;98716.92;110117;1243;69836;-71
2023/01/24 07:27:11;;;;;;;58.70;42.50;;;;;;;2.86;79.71;98715.19;109912;1244;68342;-72
2023/01/24 07:29:40;;;;;;;62.40;43.70;;;;;;;3.49;72.69;98717.07;110117;1245;69298;-71
2023/01/24 07:32:10;;;;;;;56.00;40.30;;;;;;;3.99;68.99;98719.11;110237;1244;58894;-71
2023/01/24 07:34:39;;;;;;;65.40;47.90;;;;;;;4.34;67.13;98723.36;110110;1241;58868;-72
2023/01/24 07:37:08;;;;;;;62.60;44.90;;;;;;;4.41;63.34;98724.06;110221;1246;70454;-72
2023/01/24 07:39:36;;;;;;;55.10;41.70;;;;;;;5.18;63.34;98728.73;110140;1246;69854;-72
2023/01/24 07:42:05;;;;;;;47.80;37.60;;;;;;;5.46;59.98;98730.49;110208;1245;69842;-72
2023/01/24 07:44:34;;;;;;;42.50;33.40;;;;;;;5.72;59.10;98729.85;110222;1245;59746;-71
2023/01/24 07:47:03;;;;;;;41.30;33.60;;;;;;;5.92;57.93;98728.69;110099;1243;59692;-72
2023/01/24 07:49:32;;;;;;;41.10;35.90;;;;;;;6.03;57.46;98730.59;110238;1243;71951;-72
2023/01/24 07:52:00;;;;;;;47.90;40.90;;;;;;;6.01;57.13;98732.20;110176;1241;69286;-72
2023/01/24 07:54:29;;;;;;;45.40;37.50;;;;;;;6.45;57.14;98726.20;110171;1244;69567;-72
2023/01/24 07:56:57;;;;;;;52.40;41.80;;;;;;;6.45;56.49;98726.36;109936;1246;59743;-73
2023/01/24 07:59:26;;;;;;;56.10;40.70;;;;;;;7.06;55.94;98722.59;109915;1244;59636;-73
2023/01/24 08:02:10;;;;;;;48.80;39.20;;;;;;;7.43;54.74;98724.80;110152;1243;71945;-72
2023/01/24 08:04:39;;;;;;;40.00;29.30;;;;;;;7.41;53.69;98729.05;110122;1244;68484;-72
2023/01/24 08:07:16;;;;;;;31.50;24.10;;;;;;;7.42;53.00;98726.25;110247;1245;69741;-73
2023/01/24 08:09:46;;;;;;;46.20;36.20;;;;;;;8.02;52.95;98727.61;110225;1246;59768;-72
2023/01/24 08:12:16;;;;;;;53.30;38.30;;;;;;;8.01;52.81;98725.05;110218;1243;59660;-72
2023/01/24 08:14:44;;;;;;;17.40;14.60;;;;;;;7.76;52.96;98729.38;110243;1241;71940;-73
2023/01/24 08:17:13;;;;;;;19.30;14.20;;;;;;;8.31;50.31;98731.98;110143;1243;68797;-72
2023/01/24 08:19:42;;;;;;;11.50;9.40;;;;;;;8.64;49.94;98728.99;109884;1245;69230;-72
2023/01/24 08:22:25;;;;;;;8.90;6.40;;;;;;;8.68;49.09;98726.37;110147;1246;59743;-71
2023/01/24 08:24:53;;;;;;;37.00;23.30;;;;;;;8.57;50.55;98729.83;110044;1244;59703;-72
2023/01/24 08:27:22;;;;;;;17.30;11.80;;;;;;;9.01;50.26;98728.91;110342;1245;71160;-72
2023/01/24 08:29:51;;;;;;;17.30;11.10;;;;;;;9.40;49.72;98732.63;110244;1242;69235;-72
2023/01/24 08:32:19;;;;;;;8.00;5.50;;;;;;;9.95;48.22;98732.45;110199;1246;69680;-71
2023/01/24 08:34:48;;;;;;;8.80;6.60;;;;;;;10.39;47.02;98728.52;110260;1245;59722;-72
2023/01/24 08:37:17;;;;;;;7.60;6.90;;;;;;;10.56;45.99;98728.17;110261;1245;59654;-72
2023/01/24 08:39:45;;;;;;;6.40;5.50;;;;;;;10.33;46.52;98731.45;110284;1244;70224;-72
2023/01/24 08:42:14;;;;;;;5.60;4.50;;;;;;;10.88;45.83;98729.61;110323;1246;69223;-71
2023/01/24 08:44:43;;;;;;;6.00;4.80;;;;;;;10.71;44.23;98728.45;110127;1245;69225;-72
2023/01/24 08:47:12;;;;;;;4.70;4.00;;;;;;;11.12;44.40;98732.34;110282;1245;59692;-73
2023/01/24 08:49:40;;;;;;;5.50;3.70;;;;;;;11.68;43.87;98731.55;110091;1252;59672;-72
2023/01/24 08:52:09;;;;;;;5.10;3.50;;;;;;;11.94;42.64;98736.02;110252;1251;71313;-73
2023/01/24 08:54:38;;;;;;;5.60;3.70;;;;;;;12.48;41.61;98733.93;110192;1246;69071;-73
2023/01/24 08:57:08;;;;;;;5.40;3.70;;;;;;;13.00;40.66;98733.24;110095;1244;69063;-71
2023/01/24 08:59:37;;;;;;;4.80;4.00;;;;;;;13.22;39.88;98734.50;109981;1246;59684;-74
2023/01/24 09:02:06;;;;;;;4.40;3.60;;;;;;;13.57;38.97;98733.19;110109;1244;59634;-73
2023/01/24 09:04:35;;;;;;;5.60;4.30;;;;;;;13.71;38.71;98734.86;110125;1244;70247;-75
2023/01/24 09:07:03;;;;;;;4.10;3.40;;;;;;;13.59;38.41;98730.75;110135;1244;68375;-73
2023/01/24 09:09:32;;;;;;;3.60;3.00;;;;;;;13.67;38.75;98726.91;110218;1244;69145;-73
2023/01/24 09:12:01;;;;;;;3.60;3.10;;;;;;;13.80;37.47;98723.81;110040;1246;59723;-74
2023/01/24 09:14:29;;;;;;;10.30;9.40;;;;;;;13.63;38.13;98723.65;110131;1244;59674;-74
2023/01/24 09:16:58;;;;;;;4.40;3.40;;;;;;;13.77;38.02;98724.19;109991;1242;70980;-74
2023/01/24 09:19:26;;;;;;;5.30;4.00;;;;;;;14.07;36.88;98721.67;110079;1246;69205;-74
2023/01/24 09:21:56;;;;;;;3.90;3.30;;;;;;;14.02;37.01;98719.58;110110;1244;68543;-72
2023/01/24 09:24:25;;;;;;;3.90;2.90;;;;;;;14.02;36.59;98722.36;110125;1245;59708;-74
2023/01/24 09:26:54;;;;;;;5.50;3.00;;;;;;;14.07;37.26;98718.16;110177;1244;59602;-72
2023/01/24 09:29:22;;;;;;;4.40;3.20;;;;;;;14.46;36.92;98715.37;110112;1241;71235;-71
2023/01/24 09:31:54;;;;;;;5.20;3.20;;;;;;;14.68;36.03;98708.81;110226;1245;69128;-71
2023/01/24 09:34:23;;;;;;;5.20;3.40;;;;;;;14.84;35.45;98711.73;110288;1241;68397;-71
2023/01/24 09:36:52;;;;;;;4.90;3.20;;;;;;;14.86;34.72;98703.35;110247;1244;59752;-71
2023/01/24 09:39:20;;;;;;;5.10;3.10;;;;;;;15.03;34.41;98706.36;110096;1241;59760;-70
2023/01/24 09:41:59;;;;;;;4.50;3.40;;;;;;;14.92;34.32;98704.17;110205;1245;71627;-71
2023/01/24 09:44:45;;;;;;;4.30;3.20;;;;;;;14.94;34.11;98702.10;110241;1246;69807;-72
2023/01/24 09:47:43;;;;;;;4.40;2.90;;;;;;;15.05;33.86;98697.61;110240;1244;69135;-72
2023/01/24 09:50:51;;;;;;;4.00;3.30;;;;;;;14.93;33.66;98694.09;110159;1246;59741;-72
2023/01/24 09:53:24;;;;;;;3.30;2.90;;;;;;;14.71;34.14;98696.30;110215;1245;59662;-71
2023/01/24 09:55:53;;;;;;;4.40;3.10;;;;;;;14.65;34.04;98693.23;110049;1246;71830;-72
2023/01/24 09:58:43;;;;;;;4.60;3.50;;;;;;;14.77;33.88;98690.33;110208;1241;68383;-71
2023/01/24 10:01:14;;;;;;;4.80;3.40;;;;;;;14.73;33.44;98691.58;110069;1252;69862;-73
2023/01/24 10:03:43;;;;;;;4.70;3.20;;;;;;;14.50;33.84;98692.08;110089;1241;59698;-71
2023/01/24 10:06:23;;;;;;;4.20;3.00;;;;;;;14.63;34.20;98690.23;110296;1244;59800;-71
2023/01/24 10:08:51;;;;;;;;;;;;;;;15.03;34.39;98688.96;110216;1246;71417;-71
2023/01/24 10:11:41;;;;;;;4.10;3.50;;;;;;;15.37;33.64;98690.60;110221;1242;68505;-71
2023/01/24 10:14:23;;;;;;;6.50;4.50;;;;;;;15.54;32.90;98684.98;110208;1246;69767;-71
2023/01/24 10:17:00;;;;;;;7.60;4.40;;;;;;;15.31;32.72;98684.31;110174;1245;59762;-72
2023/01/24 10:19:45;;;;;;;6.00;4.10;;;;;;;15.33;32.59;98678.09;110212;1246;59740;-71
2023/01/24 10:22:33;;;;;;;5.50;3.70;;;;;;;15.29;33.08;98674.28;110168;1245;69878;-71
2023/01/24 10:25:15;;;;;;;6.70;4.40;;;;;;;15.29;32.33;98668.15;110076;1245;69743;-72
2023/01/24 10:27:47;;;;;;;4.50;3.60;;;;;;;15.16;33.02;98665.75;110090;1241;69284;-72
2023/01/24 10:30:38;;;;;;;4.40;2.80;;;;;;;15.55;32.56;98664.50;110189;1241;59749;-70
2023/01/24 10:33:18;;;;;;;3.70;3.40;;;;;;;16.08;32.18;98661.33;110209;1245;59737;-70
2023/01/24 10:35:58;;;;;;;4.00;3.30;;;;;;;16.19;31.35;98655.05;110231;1245;71269;-71
2023/01/24 10:38:28;;;;;;;5.00;4.10;;;;;;;16.19;31.29;98650.64;110222;1245;69731;-72
2023/01/24 10:41:20;;;;;;;4.30;3.30;;;;;;;16.42;31.13;98643.39;110046;1246;69688;-71
2023/01/24 10:43:58;;;;;;;4.30;3.50;;;;;;;16.61;31.02;98644.89;110065;1243;59755;-71
2023/01/24 10:46:47;;;;;;;4.70;3.70;;;;;;;16.73;30.71;98641.89;110043;1243;59763;-71
2023/01/24 10:49:41;;;;;;;4.30;3.60;;;;;;;16.99;30.28;98639.70;110065;1245;71900;-71
2023/01/24 10:52:13;;;;;;;3.90;3.20;;;;;;;17.41;30.52;98636.64;110095;1241;69672;-71
2023/01/24 10:54:48;;;;;;;5.50;3.80;;;;;;;17.55;29.40;98636.70;110198;1246;69728;-72
2023/01/24 10:57:25;;;;;;;3.90;2.90;;;;;;;17.26;29.80;98634.29;110175;1244;59747;-72
2023/01/24 10:59:54;;;;;;;4.60;3.10;;;;;;;17.69;29.35;98628.17;110202;1245;59693;-71
2023/01/24 11:02:25;;;;;;;5.10;3.70;;;;;;;17.61;29.05;98622.68;110267;1246;71381;-71
2023/01/24 11:05:04;;;;;;;5.00;3.40;;;;;;;17.56;29.05;98617.07;110207;1245;69820;-72
2023/01/24 11:07:40;;;;;;;4.50;3.60;;;;;;;17.68;29.04;98614.84;110188;1245;68503;-72
2023/01/24 11:10:25;;;;;;;4.50;3.20;;;;;;;17.06;28.86;98610.53;110177;1244;59703;-70
2023/01/24 11:13:02;;;;;;;4.40;3.50;;;;;;;16.93;29.76;98615.71;110212;1245;59741;-70
2023/01/24 11:15:33;;;;;;;4.20;3.30;;;;;;;16.76;29.14;98612.98;110284;1245;71961;-71
2023/01/24 11:18:10;;;;;;;3.60;3.10;;;;;;;16.16;29.74;98607.91;110254;1245;69225;-71
2023/01/24 11:20:42;;;;;;;4.60;3.60;;;;;;;15.97;30.96;98604.84;110063;1241;68827;-73
2023/01/24 11:23:27;;;;;;;4.10;3.20;;;;;;;16.59;30.03;98602.48;110227;1244;59722;-72
2023/01/24 11:26:02;;;;;;;4.10;2.80;;;;;;;16.81;29.39;98601.30;110207;1242;59676;-72
2023/01/24 11:28:34;;;;;;;4.50;3.40;;;;;;;16.60;30.09;98602.61;110103;1246;71787;-72
2023/01/24 11:31:19;;;;;;;4.30;3.40;;;;;;;17.61;29.22;98597.45;110225;1241;68598;-72
2023/01/24 11:34:11;;;;;;;4.50;3.40;;;;;;;18.24;28.14;98591.45;110176;1252;70229;-72
2023/01/24 11:37:01;;;;;;;3.70;3.30;;;;;;;18.59;27.51;98590.02;110297;1244;59678;-71
2023/01/24 11:39:48;;;;;;;;;;;;;;;16.94;28.47;98581.10;110286;1244;59695;-72
2023/01/24 11:42:37;;;;;;;4.60;3.20;;;;;;;16.31;30.19;98582.00;110265;1241;72046;-73
2023/01/24 11:45:37;;;;;;;3.70;3.10;;;;;;;17.31;29.46;98578.71;110228;1241;69207;-70
2023/01/24 11:48:20;;;;;;;3.70;3.00;;;;;;;18.14;28.48;98570.81;109975;1241;69876;-72
2023/01/24 11:50:54;;;;;;;4.00;3.40;;;;;;;18.66;27.47;98569.10;110214;1244;59666;-71
2023/01/24 11:53:58;;;;;;;6.00;3.80;;;;;;;18.47;27.72;98567.64;110248;1245;59768;-72
2023/01/24 11:56:59;;;;;;;21.30;13.80;;;;;;;18.45;27.58;98566.23;110260;1241;71396;-71
2023/01/24 11:59:59;;;;;;;6.00;4.30;;;;;;;17.18;28.77;98564.58;110237;1241;68418;-71
2023/01/24 12:02:36;;;;;;;5.40;4.00;;;;;;;17.51;29.00;98564.10;110053;1245;69330;-71
2023/01/24 12:05:28;;;;;;;5.60;3.70;;;;;;;17.41;28.57;98568.10;110193;1242;59701;-71
2023/01/24 12:08:21;;;;;;;5.30;3.50;;;;;;;17.60;28.34;98566.65;110237;1242;59753;-72
2023/01/24 12:11:04;;;;;;;4.50;3.40;;;;;;;17.33;28.17;98568.58;110198;1246;71953;-71
2023/01/24 12:14:17;;;;;;;4.70;3.60;;;;;;;16.43;29.45;98566.93;110228;1243;69230;-71
2023/01/24 12:16:48;;;;;;;4.20;3.10;;;;;;;17.03;29.07;98572.23;110149;1241;69276;-71
2023/01/24 12:19:38;;;;;;;3.90;2.70;;;;;;;17.61;28.28;98566.83;110202;1243;60192;-71
2023/01/24 12:22:21;;;;;;;3.80;2.90;;;;;;;18.32;28.11;98563.75;110234;1244;59700;-71
2023/01/24 12:25:15;;;;;;;5.70;3.60;;;;;;;17.78;27.58;98569.39;110106;1242;71800;-69
2023/01/24 12:27:45;;;;;;;4.10;3.20;;;;;;;17.11;28.35;98570.20;110088;1241;69889;-71
2023/01/24 12:30:19;;;;;;;;;;;;;;;15.18;31.30;98563.95;110179;1241;69621;-70
2023/01/24 12:32:54;;;;;;;5.50;3.10;;;;;;;15.93;30.67;98565.38;110202;1245;59751;-70
2023/01/24 12:35:35;;;;;;;4.30;3.30;;;;;;;16.12;30.50;98568.48;110092;1241;59716;-71